createdAt,value
2018-05-31T00:00:39.833Z,17.20
2018-05-31T00:03:07.449Z,17.10
2018-05-31T00:05:35.844Z,17.10
2018-05-31T00:08:03.535Z,17.10
2018-05-31T00:10:31.145Z,17.10
2018-05-31T00:12:59.518Z,17.00
2018-05-31T00:15:27.151Z,17.00
2018-05-31T00:17:54.778Z,17.00
2018-05-31T00:20:22.422Z,17.00
2018-05-31T00:22:50.039Z,16.90
2018-05-31T00:25:17.641Z,16.90
2018-05-31T00:27:46.010Z,16.80
2018-05-31T00:30:14.411Z,16.80
2018-05-31T00:32:42.798Z,16.80
2018-05-31T00:35:10.416Z,16.80
2018-05-31T00:37:38.044Z,16.80
2018-05-31T00:40:05.678Z,16.70
2018-05-31T00:42:34.057Z,16.60
2018-05-31T00:45:01.690Z,16.70
2018-05-31T00:47:30.066Z,16.60
2018-05-31T00:49:58.475Z,16.50
2018-05-31T00:52:26.100Z,16.50
2018-05-31T00:54:53.726Z,16.50
2018-05-31T00:57:21.359Z,16.50
2018-05-31T00:59:49.789Z,16.40
2018-05-31T01:02:17.398Z,16.40
2018-05-31T01:04:45.001Z,16.40
2018-05-31T01:07:12.654Z,16.40
2018-05-31T01:09:40.281Z,16.30
2018-05-31T01:12:07.886Z,16.30
2018-05-31T01:14:35.533Z,16.30
2018-05-31T01:17:03.142Z,16.30
2018-05-31T01:19:31.529Z,16.20
2018-05-31T01:21:59.933Z,16.20
2018-05-31T01:24:27.603Z,16.20
2018-05-31T01:26:55.279Z,16.20
2018-05-31T01:29:22.902Z,16.20
2018-05-31T01:31:50.514Z,16.20
2018-05-31T01:34:18.126Z,16.10
2018-05-31T01:36:45.754Z,16.10
2018-05-31T01:39:17.876Z,16.10
2018-05-31T01:41:45.486Z,16.00
2018-05-31T01:44:13.104Z,16.10
2018-05-31T01:46:40.718Z,16.00
2018-05-31T01:49:09.149Z,16.00
2018-05-31T01:51:36.754Z,16.00
2018-05-31T01:54:04.346Z,16.00
2018-05-31T01:56:31.963Z,16.00
2018-05-31T01:59:00.334Z,15.90
2018-05-31T02:01:27.934Z,15.90
2018-05-31T02:03:55.585Z,15.90
2018-05-31T02:06:23.198Z,15.80
2018-05-31T02:08:50.847Z,15.80
2018-05-31T02:11:18.531Z,15.80
2018-05-31T02:13:46.191Z,15.70
2018-05-31T02:16:14.577Z,15.70
2018-05-31T02:18:42.246Z,15.70
2018-05-31T02:21:10.615Z,15.60
2018-05-31T02:23:38.990Z,15.60
2018-05-31T02:26:07.410Z,15.50
2018-05-31T02:28:35.006Z,15.50
2018-05-31T02:31:02.655Z,15.50
2018-05-31T02:33:30.247Z,15.50
2018-05-31T02:35:57.919Z,15.50
2018-05-31T02:38:25.670Z,15.50
2018-05-31T02:40:53.337Z,15.50
2018-05-31T02:43:21.750Z,15.40
2018-05-31T02:45:49.367Z,15.40
2018-05-31T02:48:16.985Z,15.40
2018-05-31T02:50:44.590Z,15.30
2018-05-31T02:53:12.212Z,15.40
2018-05-31T02:55:39.821Z,15.40
2018-05-31T02:58:08.226Z,15.30
2018-05-31T03:00:35.838Z,15.30
2018-05-31T03:03:03.490Z,15.40
2018-05-31T03:05:31.094Z,15.40
2018-05-31T03:07:58.697Z,15.30
2018-05-31T03:10:26.309Z,15.30
2018-05-31T03:12:53.924Z,15.40
2018-05-31T03:15:21.530Z,15.40
2018-05-31T03:17:49.247Z,15.40
2018-05-31T03:20:16.902Z,15.40
2018-05-31T03:22:44.548Z,15.50
2018-05-31T03:25:12.177Z,15.50
2018-05-31T03:27:40.575Z,15.50
2018-05-31T03:30:08.204Z,15.50
2018-05-31T03:32:35.867Z,15.60
2018-05-31T03:35:03.476Z,15.60
2018-05-31T03:37:31.094Z,15.70
2018-05-31T03:39:59.522Z,15.90
2018-05-31T03:42:27.122Z,15.80
2018-05-31T03:44:54.732Z,16.00
2018-05-31T03:47:22.417Z,16.20
2018-05-31T03:49:50.767Z,16.70
2018-05-31T03:52:18.362Z,16.60
2018-05-31T03:54:46.001Z,16.90
2018-05-31T03:57:13.606Z,17.00
2018-05-31T03:59:41.218Z,17.10
2018-05-31T04:02:08.837Z,17.20
2018-05-31T04:04:37.229Z,17.30
2018-05-31T04:07:04.842Z,17.30
2018-05-31T04:09:32.501Z,17.40
2018-05-31T04:12:00.105Z,17.40
2018-05-31T04:14:28.497Z,17.40
2018-05-31T04:16:56.150Z,17.40
2018-05-31T04:19:24.526Z,17.60
2018-05-31T04:21:52.146Z,17.60
2018-05-31T04:24:19.774Z,17.60
2018-05-31T04:26:47.381Z,17.70
2018-05-31T04:29:14.990Z,17.70
2018-05-31T04:31:42.609Z,17.80
2018-05-31T04:34:10.999Z,17.80
2018-05-31T04:36:39.373Z,17.90
2018-05-31T04:39:07.030Z,17.90
2018-05-31T04:41:34.659Z,17.90
2018-05-31T04:44:02.281Z,17.90
2018-05-31T04:46:29.902Z,18.00
2018-05-31T04:48:58.294Z,18.10
2018-05-31T04:51:26.666Z,18.10
2018-05-31T04:53:55.068Z,18.10
2018-05-31T04:56:22.714Z,18.10
2018-05-31T04:58:51.080Z,18.20
2018-05-31T05:01:18.738Z,18.20
2018-05-31T05:03:46.345Z,18.20
2018-05-31T05:06:13.957Z,18.20
2018-05-31T05:08:41.582Z,18.30
2018-05-31T05:11:09.193Z,18.30
2018-05-31T05:13:36.799Z,18.40
2018-05-31T05:16:04.414Z,18.40
2018-05-31T05:18:32.034Z,18.40
2018-05-31T05:20:59.678Z,18.40
2018-05-31T05:23:27.301Z,18.50
2018-05-31T05:25:54.925Z,18.50
2018-05-31T05:28:22.548Z,18.60
2018-05-31T05:30:50.201Z,18.60
2018-05-31T05:33:18.586Z,18.70
2018-05-31T05:35:46.186Z,18.70
2018-05-31T05:38:13.805Z,18.80
2018-05-31T05:40:41.459Z,18.80
2018-05-31T05:43:09.092Z,18.80
2018-05-31T05:45:37.509Z,18.90
2018-05-31T05:48:05.123Z,18.90
2018-05-31T05:50:32.742Z,19.00
2018-05-31T05:53:00.358Z,19.00
2018-05-31T05:55:27.961Z,19.10
2018-05-31T05:57:55.606Z,19.10
2018-05-31T06:00:23.242Z,19.20
2018-05-31T06:02:51.620Z,19.30
2018-05-31T06:05:19.226Z,19.30
2018-05-31T06:07:46.898Z,19.30
2018-05-31T06:10:14.509Z,19.40
2018-05-31T06:12:42.126Z,19.40
2018-05-31T06:15:09.754Z,19.50
2018-05-31T06:17:38.143Z,19.60
2018-05-31T06:20:05.797Z,19.50
2018-05-31T06:22:33.423Z,19.70
2018-05-31T06:25:01.025Z,19.70
2018-05-31T06:27:28.634Z,19.80
2018-05-31T06:29:56.262Z,19.90
2018-05-31T06:32:23.882Z,20.00
2018-05-31T06:34:51.498Z,20.10
2018-05-31T06:37:19.119Z,20.20
2018-05-31T06:39:46.738Z,20.20
2018-05-31T06:42:14.366Z,20.30
2018-05-31T06:44:42.025Z,20.30
2018-05-31T06:47:09.646Z,20.40
2018-05-31T06:49:38.006Z,20.50
2018-05-31T06:52:05.620Z,20.40
2018-05-31T06:54:33.210Z,20.60
2018-05-31T06:57:01.600Z,20.70
2018-05-31T06:59:29.246Z,20.70
2018-05-31T07:01:56.873Z,20.80
2018-05-31T07:04:25.238Z,21.00
2018-05-31T07:06:52.878Z,20.90
2018-05-31T07:09:20.464Z,21.00
2018-05-31T07:11:48.058Z,21.00
2018-05-31T07:14:15.658Z,21.10
2018-05-31T07:16:43.258Z,21.20
2018-05-31T07:19:10.861Z,21.20
2018-05-31T07:21:38.491Z,21.30
2018-05-31T07:24:06.107Z,21.30
2018-05-31T07:26:33.712Z,21.40
2018-05-31T07:29:01.370Z,21.50
2018-05-31T07:31:28.957Z,21.60
2018-05-31T07:33:56.568Z,21.60
2018-05-31T07:36:24.173Z,21.70
2018-05-31T07:38:51.761Z,21.70
2018-05-31T07:41:20.118Z,22.00
2018-05-31T07:43:47.749Z,21.90
2018-05-31T07:46:15.407Z,21.90
2018-05-31T07:48:43.037Z,21.90
2018-05-31T07:51:10.674Z,22.10
2018-05-31T07:53:39.458Z,22.20
2018-05-31T07:56:07.863Z,22.30
2018-05-31T07:58:35.494Z,22.30
2018-05-31T08:01:03.129Z,22.50
2018-05-31T08:03:30.717Z,22.50
2018-05-31T08:05:58.948Z,22.60
2018-05-31T08:08:26.549Z,22.60
2018-05-31T08:10:54.141Z,22.70
2018-05-31T08:13:21.745Z,22.80
2018-05-31T08:15:49.340Z,22.90
2018-05-31T08:18:17.718Z,23.10
2018-05-31T08:20:45.358Z,23.10
2018-05-31T08:23:12.954Z,23.10
2018-05-31T08:25:40.570Z,23.30
2018-05-31T08:28:08.180Z,23.50
2018-05-31T08:30:36.539Z,23.60
2018-05-31T08:33:04.141Z,23.60
2018-05-31T08:35:31.742Z,23.70
2018-05-31T08:37:59.360Z,23.70
2018-05-31T08:40:26.986Z,23.80
2018-05-31T08:42:54.591Z,24.00
2018-05-31T08:45:22.182Z,24.00
2018-05-31T08:47:49.815Z,24.10
2018-05-31T08:50:17.490Z,24.10
2018-05-31T08:52:45.086Z,24.20
2018-05-31T08:55:13.458Z,24.40
2018-05-31T08:57:41.887Z,24.40
2018-05-31T09:00:09.478Z,24.40
2018-05-31T09:02:37.074Z,24.50
2018-05-31T09:05:04.698Z,24.60
2018-05-31T09:07:32.294Z,24.60
2018-05-31T09:10:00.650Z,24.70
2018-05-31T09:12:29.061Z,24.80
2018-05-31T09:14:56.658Z,24.70
2018-05-31T09:17:24.253Z,24.80
2018-05-31T09:19:52.621Z,24.90
2018-05-31T09:22:20.222Z,24.90
2018-05-31T09:24:47.815Z,25.00
2018-05-31T09:27:15.464Z,25.10
2018-05-31T09:29:43.097Z,25.20
2018-05-31T09:32:10.722Z,25.40
2018-05-31T09:34:38.362Z,25.50
2018-05-31T09:37:06.727Z,25.60
2018-05-31T09:39:34.322Z,25.50
2018-05-31T09:42:01.954Z,25.60
2018-05-31T09:44:29.554Z,25.70
2018-05-31T09:46:57.934Z,25.70
2018-05-31T09:49:25.578Z,25.70
2018-05-31T09:51:53.175Z,25.70
2018-05-31T09:54:20.854Z,25.70
2018-05-31T09:56:48.511Z,25.70
2018-05-31T09:59:16.109Z,26.00
2018-05-31T10:01:45.209Z,25.90
2018-05-31T10:04:12.841Z,25.90
2018-05-31T10:06:40.433Z,26.00
2018-05-31T10:09:08.035Z,26.10
2018-05-31T10:11:35.635Z,26.30
2018-05-31T10:14:03.226Z,26.30
2018-05-31T10:16:30.830Z,26.30
2018-05-31T10:18:58.434Z,26.30
2018-05-31T10:21:26.030Z,26.40
2018-05-31T10:23:53.626Z,26.40
2018-05-31T10:26:21.339Z,26.40
2018-05-31T10:28:49.734Z,26.50
2018-05-31T10:31:17.329Z,26.40
2018-05-31T10:33:44.930Z,26.50
2018-05-31T10:36:13.286Z,26.80
2018-05-31T10:38:40.889Z,26.80
2018-05-31T10:41:08.495Z,27.00
2018-05-31T10:43:36.107Z,27.10
2018-05-31T10:46:03.726Z,27.10
2018-05-31T10:48:31.363Z,27.20
2018-05-31T10:50:58.953Z,27.20
2018-05-31T10:53:26.865Z,27.30
2018-05-31T10:55:54.531Z,27.30
2018-05-31T10:58:22.154Z,27.30
2018-05-31T11:00:50.546Z,27.40
2018-05-31T11:03:18.199Z,27.40
2018-05-31T11:05:45.822Z,27.40
2018-05-31T11:08:13.454Z,27.40
2018-05-31T11:10:41.078Z,27.50
2018-05-31T11:13:09.446Z,27.60
2018-05-31T11:15:37.040Z,27.60
2018-05-31T11:18:04.651Z,27.70
2018-05-31T11:20:32.712Z,27.70
2018-05-31T11:23:00.381Z,27.80
2018-05-31T11:25:28.030Z,27.90
2018-05-31T11:27:55.669Z,27.90
2018-05-31T11:30:24.086Z,28.10
2018-05-31T11:32:51.694Z,28.10
2018-05-31T11:35:19.286Z,28.10
2018-05-31T11:37:46.876Z,28.20
2018-05-31T11:40:14.518Z,28.30
2018-05-31T11:42:42.111Z,28.30
2018-05-31T11:45:09.710Z,28.40
2018-05-31T11:47:37.382Z,28.40
2018-05-31T11:50:05.008Z,28.40
2018-05-31T11:52:33.386Z,28.60
2018-05-31T11:55:01.814Z,28.70
2018-05-31T11:57:30.190Z,28.90
2018-05-31T11:59:57.787Z,28.80
2018-05-31T12:02:26.259Z,29.10
2018-05-31T12:04:53.859Z,29.00
2018-05-31T12:07:21.454Z,29.20
2018-05-31T12:09:49.065Z,29.40
2018-05-31T12:12:17.482Z,29.60
2018-05-31T12:14:45.066Z,29.60
2018-05-31T12:17:12.671Z,29.40
2018-05-31T12:19:40.262Z,29.50
2018-05-31T12:22:07.891Z,29.60
2018-05-31T12:24:35.503Z,29.70
2018-05-31T12:27:03.103Z,29.90
2018-05-31T12:29:31.479Z,30.10
2018-05-31T12:31:59.870Z,30.40
2018-05-31T12:34:27.462Z,30.30
2018-05-31T12:36:55.090Z,30.60
2018-05-31T12:39:22.705Z,30.80
2018-05-31T12:41:50.314Z,31.10
2018-05-31T12:44:17.906Z,31.50
2018-05-31T12:46:45.517Z,32.00
2018-05-31T12:49:13.909Z,33.10
2018-05-31T12:51:41.502Z,33.40
2018-05-31T12:54:09.106Z,34.00
2018-05-31T12:56:37.661Z,33.90
2018-05-31T12:59:05.257Z,34.10
2018-05-31T13:01:32.879Z,34.50
2018-05-31T13:04:00.490Z,34.80
2018-05-31T13:06:28.087Z,35.20
2018-05-31T13:08:55.782Z,35.30
2018-05-31T13:11:23.373Z,35.60
2018-05-31T13:13:50.966Z,35.60
2018-05-31T13:16:18.580Z,35.90
2018-05-31T13:18:46.988Z,35.80
2018-05-31T13:21:14.575Z,35.70
2018-05-31T13:23:42.201Z,36.00
2018-05-31T13:26:09.803Z,36.50
2018-05-31T13:28:37.427Z,36.20
2018-05-31T13:31:05.052Z,36.30
2018-05-31T13:33:33.450Z,36.60
2018-05-31T13:36:01.114Z,36.60
2018-05-31T13:38:28.725Z,36.40
2018-05-31T13:40:56.318Z,36.60
2018-05-31T13:43:23.914Z,36.10
2018-05-31T13:45:51.521Z,36.30
2018-05-31T13:48:19.138Z,36.50
2018-05-31T13:50:46.754Z,36.40
2018-05-31T13:53:14.380Z,36.50
2018-05-31T13:55:41.978Z,36.80
2018-05-31T13:58:10.362Z,37.10
2018-05-31T14:00:39.106Z,37.20
2018-05-31T14:03:06.743Z,37.20
2018-05-31T14:05:34.354Z,37.20
2018-05-31T14:08:02.758Z,37.20
2018-05-31T14:10:30.372Z,37.10
2018-05-31T14:12:57.957Z,37.50
2018-05-31T14:15:26.330Z,37.90
2018-05-31T14:17:53.974Z,37.80
2018-05-31T14:20:21.613Z,38.00
2018-05-31T14:22:49.266Z,37.50
2018-05-31T14:25:18.466Z,37.90
2018-05-31T14:27:46.089Z,37.90
2018-05-31T14:30:13.721Z,37.60
2018-05-31T14:32:41.317Z,37.50
2018-05-31T14:35:08.925Z,37.70
2018-05-31T14:37:36.541Z,38.10
2018-05-31T14:40:04.138Z,38.00
2018-05-31T14:42:31.742Z,38.20
2018-05-31T14:44:59.385Z,38.50
2018-05-31T14:47:27.745Z,38.40
2018-05-31T14:49:55.394Z,38.60
2018-05-31T14:52:23.008Z,37.90
2018-05-31T14:54:50.604Z,37.90
2018-05-31T14:57:18.196Z,38.00
2018-05-31T14:59:45.806Z,38.00
2018-05-31T15:02:13.406Z,38.50
2018-05-31T15:04:40.998Z,37.60
2018-05-31T15:07:08.607Z,37.80
2018-05-31T15:09:36.299Z,38.00
2018-05-31T15:12:03.897Z,38.20
2018-05-31T15:14:31.519Z,38.00
2018-05-31T15:16:59.110Z,38.20
2018-05-31T15:19:26.710Z,38.30
2018-05-31T15:21:54.347Z,38.60
2018-05-31T15:24:21.940Z,38.60
2018-05-31T15:26:49.533Z,38.60
2018-05-31T15:29:17.968Z,38.30
2018-05-31T15:31:45.571Z,38.20
2018-05-31T15:34:13.981Z,38.00
2018-05-31T15:36:41.602Z,37.90
2018-05-31T15:39:09.208Z,37.60
2018-05-31T15:41:36.915Z,37.50
2018-05-31T15:44:04.549Z,36.60
2018-05-31T15:46:32.146Z,35.90
2018-05-31T15:48:59.742Z,35.20
2018-05-31T15:51:27.366Z,34.40
2018-05-31T15:53:54.970Z,33.50
2018-05-31T15:56:22.571Z,32.80
2018-05-31T15:58:50.182Z,32.30
2018-05-31T16:01:17.778Z,31.70
2018-05-31T16:03:45.371Z,31.10
2018-05-31T16:06:13.027Z,30.50
2018-05-31T16:08:40.675Z,30.10
2018-05-31T16:11:08.316Z,29.80
2018-05-31T16:13:35.954Z,29.60
2018-05-31T16:16:03.562Z,29.30
2018-05-31T16:18:31.165Z,29.10
2018-05-31T16:20:58.806Z,28.90
2018-05-31T16:23:26.422Z,28.90
2018-05-31T16:25:54.014Z,28.70
2018-05-31T16:28:21.636Z,28.60
2018-05-31T16:30:49.227Z,28.60
2018-05-31T16:33:16.826Z,28.40
2018-05-31T16:35:44.471Z,28.20
2018-05-31T16:38:12.075Z,28.30
2018-05-31T16:40:39.709Z,28.20
2018-05-31T16:43:07.326Z,28.20
2018-05-31T16:45:34.930Z,28.00
2018-05-31T16:48:02.564Z,27.80
2018-05-31T16:50:30.934Z,27.70
2018-05-31T16:52:58.533Z,27.60
2018-05-31T16:55:26.131Z,27.60
2018-05-31T16:57:53.741Z,27.50
2018-05-31T17:00:22.107Z,27.20
2018-05-31T17:02:49.713Z,27.10
2018-05-31T17:05:17.319Z,26.90
2018-05-31T17:07:45.683Z,26.60
2018-05-31T17:10:13.277Z,26.60
2018-05-31T17:12:40.886Z,26.40
2018-05-31T17:15:08.498Z,26.20
2018-05-31T17:17:36.855Z,25.90
2018-05-31T17:20:04.465Z,25.90
2018-05-31T17:22:32.062Z,25.80
2018-05-31T17:24:59.686Z,25.50
2018-05-31T17:27:27.286Z,25.40
2018-05-31T17:29:54.877Z,25.20
2018-05-31T17:32:22.483Z,25.10
2018-05-31T17:34:50.090Z,25.00
2018-05-31T17:37:17.702Z,24.90
2018-05-31T17:39:45.342Z,24.70
2018-05-31T17:42:12.991Z,24.80
2018-05-31T17:44:40.626Z,24.70
2018-05-31T17:47:08.218Z,24.60
2018-05-31T17:49:35.822Z,24.50
2018-05-31T17:52:03.431Z,24.40
2018-05-31T17:54:31.022Z,24.30
2018-05-31T17:56:58.629Z,24.10
2018-05-31T17:59:26.998Z,24.00
2018-05-31T18:01:55.361Z,23.90
2018-05-31T18:04:22.973Z,23.80
2018-05-31T18:06:50.574Z,23.80
2018-05-31T18:09:18.176Z,23.70
2018-05-31T18:11:45.783Z,23.60
2018-05-31T18:14:13.381Z,23.50
2018-05-31T18:16:41.784Z,23.20
2018-05-31T18:19:09.442Z,23.20
2018-05-31T18:21:37.039Z,23.20
2018-05-31T18:24:04.645Z,23.10
2018-05-31T18:26:32.248Z,23.10
2018-05-31T18:28:59.839Z,23.00
2018-05-31T18:31:27.449Z,22.90
2018-05-31T18:33:55.103Z,22.80
2018-05-31T18:36:22.702Z,22.80
2018-05-31T18:38:50.301Z,22.70
2018-05-31T18:41:17.908Z,22.70
2018-05-31T18:43:45.545Z,22.60
2018-05-31T18:46:13.170Z,22.50
2018-05-31T18:48:40.822Z,22.50
2018-05-31T18:51:08.437Z,22.40
2018-05-31T18:53:36.046Z,22.30
2018-05-31T18:56:03.657Z,22.20
2018-05-31T18:58:31.270Z,22.20
2018-05-31T19:00:58.865Z,22.00
2018-05-31T19:03:26.485Z,22.00
2018-05-31T19:05:54.082Z,21.90
2018-05-31T19:08:21.685Z,21.80
2018-05-31T19:10:49.288Z,21.80
2018-05-31T19:13:22.574Z,21.70
2018-05-31T19:15:50.957Z,21.50
2018-05-31T19:18:24.091Z,21.50
2018-05-31T19:20:51.699Z,21.40
2018-05-31T19:23:19.306Z,21.20
2018-05-31T19:25:46.942Z,21.10
2018-05-31T19:28:14.582Z,21.10
2018-05-31T19:30:47.723Z,20.90
2018-05-31T19:33:16.135Z,20.80
2018-05-31T19:35:49.358Z,20.80
2018-05-31T19:38:17.759Z,20.80
2018-05-31T19:40:45.363Z,20.80
2018-05-31T19:43:18.475Z,20.70
2018-05-31T19:45:46.101Z,20.60
2018-05-31T19:48:13.701Z,20.60
2018-05-31T19:50:42.070Z,20.40
2018-05-31T19:53:16.162Z,20.30
2018-05-31T19:55:43.770Z,20.30
2018-05-31T19:58:16.915Z,20.20
2018-05-31T20:00:50.190Z,20.10
2018-05-31T20:03:23.326Z,20.00
2018-05-31T20:05:51.723Z,19.80
2018-05-31T20:08:19.339Z,19.80
2018-05-31T20:10:46.944Z,19.80
2018-05-31T20:13:14.565Z,19.70
2018-05-31T20:15:42.174Z,19.50
2018-05-31T20:18:09.789Z,19.50
2018-05-31T20:20:37.405Z,19.40
2018-05-31T20:23:05.022Z,19.30
2018-05-31T20:25:33.390Z,19.10
2018-05-31T20:28:01.004Z,19.10
2018-05-31T20:30:28.594Z,19.10
2018-05-31T20:32:56.199Z,19.00
2018-05-31T20:35:23.815Z,18.90
2018-05-31T20:37:51.426Z,18.90
2018-05-31T20:40:19.029Z,18.80
2018-05-31T20:42:46.646Z,18.70
2018-05-31T20:45:14.244Z,18.70
2018-05-31T20:47:41.866Z,18.70
2018-05-31T20:50:09.477Z,18.70
2018-05-31T20:52:37.078Z,18.60
2018-05-31T20:55:04.707Z,18.60
2018-05-31T20:57:32.318Z,18.60
2018-05-31T20:59:59.991Z,18.50
2018-05-31T21:02:28.343Z,18.40
2018-05-31T21:04:56.722Z,18.30
2018-05-31T21:07:24.338Z,18.30
2018-05-31T21:09:51.942Z,18.30
2018-05-31T21:12:19.567Z,18.30
2018-05-31T21:14:47.162Z,18.20
2018-05-31T21:17:14.766Z,18.20
2018-05-31T21:19:42.459Z,18.10
2018-05-31T21:22:10.827Z,18.00
2018-05-31T21:24:38.422Z,18.00
2018-05-31T21:27:06.034Z,17.90
2018-05-31T21:29:33.630Z,17.90
2018-05-31T21:32:01.994Z,17.80
2018-05-31T21:34:29.610Z,17.80
2018-05-31T21:36:57.212Z,17.80
2018-05-31T21:39:25.570Z,17.70
2018-05-31T21:41:53.174Z,17.70
2018-05-31T21:44:20.776Z,17.70
2018-05-31T21:46:48.371Z,17.70
2018-05-31T21:49:16.764Z,17.70
2018-05-31T21:51:45.131Z,17.70
2018-05-31T21:54:13.508Z,17.70
2018-05-31T21:56:41.878Z,17.60
2018-05-31T21:59:09.482Z,17.60
2018-05-31T22:01:37.100Z,17.60
2018-05-31T22:04:04.721Z,17.50
2018-05-31T22:06:32.352Z,17.50
2018-05-31T22:08:59.960Z,17.50
2018-05-31T22:11:27.597Z,17.40
2018-05-31T22:13:55.200Z,17.40
2018-05-31T22:16:22.810Z,17.30
2018-05-31T22:18:50.418Z,17.30
2018-05-31T22:21:18.019Z,17.20
2018-05-31T22:23:45.618Z,17.20
2018-05-31T22:26:13.226Z,17.10
2018-05-31T22:28:41.614Z,17.00
2018-05-31T22:31:09.215Z,17.00
2018-05-31T22:33:36.843Z,17.00
2018-05-31T22:36:04.450Z,17.00
2018-05-31T22:38:32.058Z,16.90
2018-05-31T22:41:00.471Z,16.80
2018-05-31T22:43:28.086Z,16.80
2018-05-31T22:45:55.728Z,16.90
2018-05-31T22:48:24.100Z,16.90
2018-05-31T22:50:51.689Z,16.90
2018-05-31T22:53:19.280Z,16.90
2018-05-31T22:55:46.878Z,16.90
2018-05-31T22:58:14.469Z,16.90
2018-05-31T23:00:42.062Z,16.90
2018-05-31T23:03:09.661Z,16.90
2018-05-31T23:05:37.262Z,16.80
2018-05-31T23:08:04.868Z,16.80
2018-05-31T23:10:32.483Z,16.80
2018-05-31T23:13:00.131Z,16.70
2018-05-31T23:15:27.763Z,16.70
2018-05-31T23:17:56.129Z,16.60
2018-05-31T23:20:25.226Z,16.50
2018-05-31T23:22:52.818Z,16.50
2018-05-31T23:25:21.210Z,16.30
2018-05-31T23:27:48.797Z,16.30
2018-05-31T23:30:16.386Z,16.30
2018-05-31T23:32:43.994Z,16.30
2018-05-31T23:35:11.598Z,16.20
2018-05-31T23:37:39.194Z,16.20
2018-05-31T23:40:07.586Z,16.20
2018-05-31T23:42:35.938Z,16.20
2018-05-31T23:45:03.542Z,16.20
2018-05-31T23:47:31.938Z,16.20
2018-05-31T23:49:59.561Z,16.20
2018-05-31T23:52:27.166Z,16.20
2018-05-31T23:54:54.792Z,16.10
2018-05-31T23:57:22.386Z,16.10
2018-05-31T23:59:49.992Z,16.10
